createdAt,value
2023-01-18T00:01:05.861Z,89.82
2023-01-18T00:03:33.894Z,90.19
2023-01-18T00:06:02.244Z,89.95
2023-01-18T00:08:31.196Z,89.97
2023-01-18T00:11:15.577Z,89.84
2023-01-18T00:13:42.494Z,89.53
2023-01-18T00:16:13.143Z,89.30
2023-01-18T00:18:40.345Z,89.94
2023-01-18T00:21:09.283Z,89.62
2023-01-18T00:23:36.808Z,89.80
2023-01-18T00:26:09.494Z,89.95
2023-01-18T00:28:40.395Z,90.08
2023-01-18T00:31:18.654Z,90.22
2023-01-18T00:33:47.158Z,89.65
2023-01-18T00:36:14.626Z,90.15
2023-01-18T00:38:41.518Z,89.77
2023-01-18T00:41:10.382Z,89.92
2023-01-18T00:43:42.349Z,89.77
2023-01-18T00:46:14.627Z,89.75
2023-01-18T00:48:42.773Z,89.98
2023-01-18T00:51:12.061Z,90.48
2023-01-18T00:53:39.477Z,89.72
2023-01-18T00:56:10.775Z,90.19
2023-01-18T00:58:37.742Z,89.83
2023-01-18T01:01:06.304Z,89.83
2023-01-18T01:03:51.592Z,90.38
2023-01-18T01:06:48.398Z,90.52
2023-01-18T01:09:15.131Z,90.13
2023-01-18T01:12:02.149Z,90.05
2023-01-18T01:14:50.842Z,90.22
2023-01-18T01:17:36.530Z,89.98
2023-01-18T01:20:22.324Z,89.92
2023-01-18T01:23:07.335Z,90.10
2023-01-18T01:25:55.609Z,90.14
2023-01-18T01:28:25.579Z,89.65
2023-01-18T01:30:56.423Z,90.08
2023-01-18T01:33:23.265Z,90.33
2023-01-18T01:35:50.078Z,89.81
2023-01-18T01:38:16.739Z,90.81
2023-01-18T01:40:43.351Z,90.35
2023-01-18T01:43:13.456Z,90.58
2023-01-18T01:45:42.397Z,90.24
2023-01-18T01:48:10.934Z,90.69
2023-01-18T01:50:40.223Z,90.94
2023-01-18T01:53:08.587Z,90.65
2023-01-18T01:55:37.889Z,90.59
2023-01-18T01:58:18.675Z,90.51
2023-01-18T02:00:46.146Z,90.86
2023-01-18T02:03:18.562Z,90.88
2023-01-18T02:05:50.680Z,90.32
2023-01-18T02:08:22.767Z,90.31
2023-01-18T02:10:52.730Z,91.00
2023-01-18T02:13:23.693Z,90.51
2023-01-18T02:15:53.184Z,91.04
2023-01-18T02:18:26.903Z,91.25
2023-01-18T02:20:53.797Z,90.99
2023-01-18T02:23:29.522Z,91.18
2023-01-18T02:26:31.786Z,90.52
2023-01-18T02:29:15.145Z,90.92
2023-01-18T02:32:12.702Z,90.36
2023-01-18T02:34:51.859Z,91.20
2023-01-18T02:37:38.018Z,90.78
2023-01-18T02:40:34.430Z,90.42
2023-01-18T02:43:23.505Z,90.86
2023-01-18T02:46:09.179Z,90.93
2023-01-18T02:48:39.105Z,90.94
2023-01-18T02:51:06.581Z,91.05
2023-01-18T02:53:40.347Z,90.27
2023-01-18T02:56:13.669Z,90.78
2023-01-18T02:58:47.411Z,90.32
2023-01-18T03:01:28.734Z,90.76
2023-01-18T03:04:01.979Z,90.72
2023-01-18T03:06:30.033Z,90.83
2023-01-18T03:09:00.633Z,91.55
2023-01-18T03:11:33.338Z,90.98
2023-01-18T03:14:22.137Z,91.41
2023-01-18T03:17:07.400Z,90.81
2023-01-18T03:20:03.137Z,91.55
2023-01-18T03:22:55.510Z,91.05
2023-01-18T03:25:35.170Z,91.57
2023-01-18T03:28:32.648Z,90.88
2023-01-18T03:31:22.173Z,91.22
2023-01-18T03:34:05.816Z,90.83
2023-01-18T03:36:40.500Z,90.65
2023-01-18T03:39:19.109Z,90.45
2023-01-18T03:41:51.849Z,90.63
2023-01-18T03:44:41.297Z,91.34
2023-01-18T03:47:08.654Z,90.98
2023-01-18T03:49:35.928Z,90.98
2023-01-18T03:52:20.412Z,91.73
2023-01-18T03:54:51.640Z,91.33
2023-01-18T03:57:36.454Z,91.24
2023-01-18T04:00:06.100Z,91.16
2023-01-18T04:02:35.236Z,91.11
2023-01-18T04:05:04.381Z,91.17
2023-01-18T04:07:31.829Z,91.27
2023-01-18T04:09:59.824Z,91.12
2023-01-18T04:12:26.905Z,91.28
2023-01-18T04:14:56.209Z,90.77
2023-01-18T04:17:22.901Z,90.94
2023-01-18T04:19:49.505Z,91.20
2023-01-18T04:22:16.849Z,91.38
2023-01-18T04:24:43.502Z,91.73
2023-01-18T04:27:10.173Z,90.87
2023-01-18T04:29:36.837Z,90.97
2023-01-18T04:32:04.167Z,91.51
2023-01-18T04:34:30.750Z,91.26
2023-01-18T04:36:59.627Z,91.04
2023-01-18T04:39:26.440Z,91.69
2023-01-18T04:41:53.076Z,91.49
2023-01-18T04:44:22.245Z,91.55
2023-01-18T04:46:49.154Z,91.39
2023-01-18T04:49:17.486Z,91.92
2023-01-18T04:51:49.640Z,91.00
2023-01-18T04:54:18.336Z,91.66
2023-01-18T04:56:47.480Z,91.08
2023-01-18T04:59:17.799Z,91.52
2023-01-18T05:01:44.523Z,90.77
2023-01-18T05:04:11.257Z,91.27
2023-01-18T05:06:38.032Z,90.86
2023-01-18T05:09:04.868Z,90.97
2023-01-18T05:11:31.428Z,90.57
2023-01-18T05:14:00.336Z,90.46
2023-01-18T05:16:27.804Z,90.42
2023-01-18T05:18:54.667Z,90.58
2023-01-18T05:21:21.646Z,90.42
2023-01-18T05:23:50.810Z,91.05
2023-01-18T05:26:19.783Z,90.96
2023-01-18T05:28:47.557Z,91.45
2023-01-18T05:31:15.755Z,90.58
2023-01-18T05:33:42.798Z,90.57
2023-01-18T05:36:09.893Z,90.80
2023-01-18T05:38:36.573Z,90.49
2023-01-18T05:41:03.556Z,90.81
2023-01-18T05:43:30.353Z,91.34
2023-01-18T05:45:57.739Z,90.92
2023-01-18T05:48:24.825Z,91.04
2023-01-18T05:50:51.959Z,90.86
2023-01-18T05:53:20.908Z,91.61
2023-01-18T05:55:55.908Z,91.15
2023-01-18T05:58:22.668Z,91.04
2023-01-18T06:00:49.626Z,91.25
2023-01-18T06:03:16.446Z,90.88
2023-01-18T06:05:43.022Z,91.47
2023-01-18T06:08:09.683Z,91.58
2023-01-18T06:10:36.255Z,91.16
2023-01-18T06:13:05.372Z,91.17
2023-01-18T06:15:34.370Z,90.73
2023-01-18T06:18:01.134Z,90.87
2023-01-18T06:20:30.600Z,91.30
2023-01-18T06:22:58.564Z,91.02
2023-01-18T06:25:26.911Z,90.89
2023-01-18T06:27:53.492Z,90.62
2023-01-18T06:30:26.178Z,91.08
2023-01-18T06:32:55.327Z,90.94
2023-01-18T06:35:22.166Z,91.26
2023-01-18T06:37:48.862Z,91.05
2023-01-18T06:40:15.846Z,91.35
2023-01-18T06:42:42.811Z,91.60
2023-01-18T06:45:09.853Z,91.28
2023-01-18T06:47:36.423Z,90.77
2023-01-18T06:50:05.508Z,90.98
2023-01-18T06:52:32.190Z,91.49
2023-01-18T06:54:59.078Z,91.62
2023-01-18T06:57:25.742Z,91.17
2023-01-18T06:59:55.032Z,90.59
2023-01-18T07:02:21.978Z,91.47
2023-01-18T07:04:48.860Z,90.76
2023-01-18T07:07:15.647Z,91.28
2023-01-18T07:09:44.752Z,91.22
2023-01-18T07:12:13.719Z,91.21
2023-01-18T07:14:40.810Z,91.50
2023-01-18T07:17:08.881Z,91.43
2023-01-18T07:19:38.772Z,91.01
2023-01-18T07:22:07.826Z,91.08
2023-01-18T07:24:34.508Z,90.97
2023-01-18T07:27:01.180Z,91.29
2023-01-18T07:29:31.018Z,90.92
2023-01-18T07:31:57.952Z,91.69
2023-01-18T07:34:27.141Z,90.90
2023-01-18T07:36:54.401Z,91.06
2023-01-18T07:39:21.049Z,91.53
2023-01-18T07:41:47.754Z,91.10
2023-01-18T07:44:14.308Z,91.04
2023-01-18T07:46:43.192Z,91.01
2023-01-18T07:49:10.059Z,91.48
2023-01-18T07:51:36.915Z,91.70
2023-01-18T07:54:03.949Z,91.64
2023-01-18T07:56:30.845Z,91.27
2023-01-18T07:58:57.579Z,90.90
2023-01-18T08:01:25.105Z,91.56
2023-01-18T08:03:53.786Z,90.66
2023-01-18T08:06:25.577Z,90.88
2023-01-18T08:08:57.070Z,91.27
2023-01-18T08:11:26.397Z,90.96
2023-01-18T08:13:53.098Z,90.54
2023-01-18T08:16:20.107Z,90.56
2023-01-18T08:18:50.120Z,90.56
2023-01-18T08:21:19.236Z,90.58
2023-01-18T08:23:45.972Z,90.46
2023-01-18T08:26:15.415Z,89.95
2023-01-18T08:28:42.027Z,90.19
2023-01-18T08:31:17.868Z,90.00
2023-01-18T08:33:47.669Z,89.88
2023-01-18T08:36:25.550Z,90.73
2023-01-18T08:38:57.454Z,89.81
2023-01-18T08:41:28.515Z,90.17
2023-01-18T08:43:56.196Z,90.02
2023-01-18T08:46:23.432Z,90.11
2023-01-18T08:48:57.866Z,90.39
2023-01-18T08:51:26.447Z,90.09
2023-01-18T08:53:57.110Z,89.98
2023-01-18T08:56:23.866Z,90.08
2023-01-18T08:58:52.247Z,90.14
2023-01-18T09:01:19.159Z,90.20
2023-01-18T09:03:48.021Z,90.23
2023-01-18T09:06:16.848Z,89.65
2023-01-18T09:08:43.664Z,90.13
2023-01-18T09:11:10.792Z,89.99
2023-01-18T09:13:58.475Z,90.02
2023-01-18T09:16:26.361Z,89.61
2023-01-18T09:18:55.304Z,89.70
2023-01-18T09:21:21.956Z,89.54
2023-01-18T09:23:49.294Z,89.51
2023-01-18T09:26:17.608Z,89.50
2023-01-18T09:28:44.918Z,89.30
2023-01-18T09:31:12.483Z,89.03
2023-01-18T09:33:40.303Z,89.26
2023-01-18T09:36:10.087Z,89.20
2023-01-18T09:38:38.405Z,89.41
2023-01-18T09:41:24.840Z,88.60
2023-01-18T09:43:55.264Z,87.77
2023-01-18T09:46:23.846Z,86.48
2023-01-18T09:48:59.885Z,85.45
2023-01-18T09:51:42.132Z,85.42
2023-01-18T09:54:08.758Z,84.68
2023-01-18T09:56:46.675Z,84.48
2023-01-18T09:59:27.401Z,83.98
2023-01-18T10:01:56.089Z,84.22
2023-01-18T10:04:38.454Z,84.57
2023-01-18T10:07:17.047Z,84.24
2023-01-18T10:09:54.015Z,84.11
2023-01-18T10:12:41.070Z,84.09
2023-01-18T10:15:34.502Z,83.90
2023-01-18T10:18:01.355Z,84.05
2023-01-18T10:20:31.317Z,84.38
2023-01-18T10:23:04.026Z,84.50
2023-01-18T10:25:52.557Z,84.49
2023-01-18T10:28:41.275Z,84.52
2023-01-18T10:31:22.837Z,84.47
2023-01-18T10:33:54.735Z,84.40
2023-01-18T10:36:26.530Z,84.92
2023-01-18T10:38:55.565Z,84.51
2023-01-18T10:41:29.636Z,84.38
2023-01-18T10:43:56.790Z,84.36
2023-01-18T10:46:23.680Z,84.78
2023-01-18T10:48:52.752Z,84.71
2023-01-18T10:51:36.873Z,84.49
2023-01-18T10:54:19.079Z,84.19
2023-01-18T10:56:45.733Z,83.89
2023-01-18T10:59:25.405Z,84.51
2023-01-18T11:01:57.254Z,84.15
2023-01-18T11:04:30.062Z,84.23
2023-01-18T11:07:00.659Z,84.53
2023-01-18T11:09:39.691Z,84.15
2023-01-18T11:12:42.563Z,83.83
2023-01-18T11:15:15.653Z,83.56
2023-01-18T11:17:55.997Z,83.51
2023-01-18T11:20:30.259Z,83.61
2023-01-18T11:23:03.504Z,83.89
2023-01-18T11:25:42.758Z,83.66
2023-01-18T11:28:24.097Z,84.02
2023-01-18T11:31:05.738Z,83.31
2023-01-18T11:33:33.427Z,82.88
2023-01-18T11:36:05.155Z,83.37
2023-01-18T11:38:33.982Z,83.40
2023-01-18T11:41:06.856Z,83.69
2023-01-18T11:43:39.483Z,82.74
2023-01-18T11:46:36.953Z,83.07
2023-01-18T11:49:22.485Z,82.92
2023-01-18T11:51:57.233Z,82.93
2023-01-18T11:54:33.357Z,82.97
2023-01-18T11:57:02.978Z,82.68
2023-01-18T11:59:41.867Z,82.55
2023-01-18T12:02:14.499Z,82.96
2023-01-18T12:04:41.192Z,83.18
2023-01-18T12:07:10.887Z,82.46
2023-01-18T12:09:48.903Z,82.76
2023-01-18T12:12:38.467Z,82.08
2023-01-18T12:15:29.427Z,82.22
2023-01-18T12:18:26.903Z,81.99
2023-01-18T12:21:02.464Z,81.51
2023-01-18T12:24:06.734Z,81.87
2023-01-18T12:26:58.289Z,81.84
2023-01-18T12:29:52.729Z,81.43
2023-01-18T12:32:30.796Z,81.79
2023-01-18T12:35:25.208Z,81.99
2023-01-18T12:38:07.343Z,81.33
2023-01-18T12:40:44.803Z,81.74
2023-01-18T12:43:19.518Z,81.31
2023-01-18T12:46:09.345Z,80.90
2023-01-18T12:49:21.516Z,80.47
2023-01-18T12:51:53.074Z,79.31
2023-01-18T12:54:39.890Z,78.89
2023-01-18T12:57:07.852Z,78.73
2023-01-18T12:59:42.449Z,78.43
2023-01-18T13:02:29.813Z,78.43
2023-01-18T13:05:18.123Z,78.41
2023-01-18T13:08:06.420Z,78.93
2023-01-18T13:10:35.184Z,79.21
2023-01-18T13:13:04.168Z,78.97
2023-01-18T13:15:48.613Z,79.39
2023-01-18T13:18:27.110Z,79.41
2023-01-18T13:21:11.916Z,79.60
2023-01-18T13:23:57.227Z,80.16
2023-01-18T13:26:29.570Z,79.82
2023-01-18T13:29:29.876Z,80.04
2023-01-18T13:31:57.652Z,80.07
2023-01-18T13:34:31.431Z,79.79
2023-01-18T13:37:13.340Z,80.02
2023-01-18T13:39:47.589Z,79.84
2023-01-18T13:42:14.386Z,80.59
2023-01-18T13:44:48.230Z,80.11
2023-01-18T13:47:39.630Z,80.03
2023-01-18T13:50:28.256Z,80.07
2023-01-18T13:53:13.329Z,80.59
2023-01-18T13:56:00.220Z,80.19
2023-01-18T13:58:30.811Z,81.03
2023-01-18T14:01:03.586Z,81.06
2023-01-18T14:03:47.004Z,81.15
2023-01-18T14:06:24.965Z,80.50
2023-01-18T14:09:05.373Z,80.96
2023-01-18T14:11:37.781Z,80.73
2023-01-18T14:14:29.541Z,81.00
2023-01-18T14:17:08.854Z,80.54
2023-01-18T14:20:00.385Z,80.92
2023-01-18T14:22:37.630Z,81.29
2023-01-18T14:25:33.563Z,81.50
2023-01-18T14:28:14.628Z,81.19
2023-01-18T14:30:43.991Z,80.60
2023-01-18T14:33:16.526Z,80.94
2023-01-18T14:35:55.275Z,80.74
2023-01-18T14:38:22.019Z,81.05
2023-01-18T14:40:52.657Z,80.50
2023-01-18T14:43:45.625Z,80.82
2023-01-18T14:46:17.363Z,80.59
2023-01-18T14:48:56.291Z,80.33
2023-01-18T14:51:28.320Z,80.24
2023-01-18T14:54:00.763Z,80.29
2023-01-18T14:56:30.420Z,80.96
2023-01-18T14:58:59.775Z,80.58
2023-01-18T15:01:40.428Z,80.85
2023-01-18T15:04:20.219Z,80.68
2023-01-18T15:06:54.220Z,80.83
2023-01-18T15:09:22.547Z,81.17
2023-01-18T15:11:52.492Z,80.79
2023-01-18T15:14:29.317Z,81.01
2023-01-18T15:16:58.921Z,81.18
2023-01-18T15:19:40.530Z,80.90
2023-01-18T15:22:12.836Z,81.44
2023-01-18T15:24:41.991Z,81.09
2023-01-18T15:27:14.122Z,81.25
2023-01-18T15:29:45.915Z,81.72
2023-01-18T15:32:20.456Z,81.69
2023-01-18T15:34:49.763Z,81.54
2023-01-18T15:37:23.430Z,81.93
2023-01-18T15:40:04.058Z,81.32
2023-01-18T15:42:40.803Z,81.97
2023-01-18T15:45:18.588Z,81.96
2023-01-18T15:48:00.966Z,82.17
2023-01-18T15:50:44.408Z,82.55
2023-01-18T15:53:33.438Z,82.44
2023-01-18T15:56:07.519Z,83.14
2023-01-18T15:58:40.514Z,83.23
2023-01-18T16:01:17.070Z,82.87
2023-01-18T16:03:49.933Z,83.13
2023-01-18T16:06:22.951Z,83.25
2023-01-18T16:08:56.886Z,83.44
2023-01-18T16:11:53.328Z,83.56
2023-01-18T16:14:29.055Z,83.20
2023-01-18T16:17:07.976Z,84.00
2023-01-18T16:19:43.130Z,83.81
2023-01-18T16:22:18.848Z,83.82
2023-01-18T16:24:47.332Z,84.35
2023-01-18T16:27:20.242Z,84.15
2023-01-18T16:29:55.164Z,83.82
2023-01-18T16:32:21.803Z,84.33
2023-01-18T16:34:48.749Z,84.42
2023-01-18T16:37:17.222Z,84.47
2023-01-18T16:39:44.192Z,84.24
2023-01-18T16:42:12.266Z,83.48
2023-01-18T16:44:44.358Z,84.66
2023-01-18T16:47:12.302Z,84.53
2023-01-18T16:49:41.719Z,83.95
2023-01-18T16:52:12.756Z,84.25
2023-01-18T16:54:46.112Z,83.89
2023-01-18T16:57:21.044Z,84.38
2023-01-18T16:59:47.987Z,84.47
2023-01-18T17:02:15.102Z,84.58
2023-01-18T17:04:42.352Z,84.36
2023-01-18T17:07:09.901Z,84.50
2023-01-18T17:09:47.934Z,84.35
2023-01-18T17:12:17.875Z,83.69
2023-01-18T17:14:44.472Z,83.74
2023-01-18T17:17:11.277Z,84.10
2023-01-18T17:19:38.086Z,83.78
2023-01-18T17:22:05.018Z,83.74
2023-01-18T17:24:32.037Z,83.24
2023-01-18T17:26:58.677Z,83.99
2023-01-18T17:29:25.377Z,83.94
2023-01-18T17:31:53.053Z,83.74
2023-01-18T17:34:30.052Z,84.17
2023-01-18T17:36:58.782Z,83.49
2023-01-18T17:39:44.275Z,83.92
2023-01-18T17:42:29.847Z,83.86
2023-01-18T17:45:03.121Z,84.10
2023-01-18T17:47:34.918Z,83.88
2023-01-18T17:50:09.222Z,83.82
2023-01-18T17:52:37.260Z,83.93
2023-01-18T17:55:04.387Z,84.14
2023-01-18T17:57:31.136Z,84.01
2023-01-18T17:59:57.961Z,83.74
2023-01-18T18:02:25.554Z,83.99
2023-01-18T18:04:52.480Z,83.55
2023-01-18T18:07:19.219Z,84.11
2023-01-18T18:09:46.001Z,82.90
2023-01-18T18:12:12.741Z,83.51
2023-01-18T18:14:40.665Z,83.46
2023-01-18T18:17:07.987Z,83.70
2023-01-18T18:19:34.636Z,83.33
2023-01-18T18:22:01.890Z,83.77
2023-01-18T18:24:30.664Z,83.15
2023-01-18T18:27:03.027Z,83.81
2023-01-18T18:29:29.864Z,83.08
2023-01-18T18:31:56.764Z,83.66
2023-01-18T18:34:25.978Z,83.70
2023-01-18T18:36:52.673Z,83.39
2023-01-18T18:39:19.520Z,83.65
2023-01-18T18:41:48.698Z,82.84
2023-01-18T18:44:17.435Z,83.25
2023-01-18T18:46:44.010Z,83.75
2023-01-18T18:49:11.279Z,83.22
2023-01-18T18:51:37.897Z,83.42
2023-01-18T18:54:07.702Z,83.66
2023-01-18T18:56:34.442Z,84.02
2023-01-18T18:59:01.699Z,84.11
2023-01-18T19:01:30.174Z,83.76
2023-01-18T19:03:58.873Z,84.02
2023-01-18T19:06:26.438Z,84.50
2023-01-18T19:08:53.469Z,84.43
2023-01-18T19:11:21.034Z,84.52
2023-01-18T19:13:49.491Z,84.55
2023-01-18T19:16:17.086Z,84.47
2023-01-18T19:18:46.265Z,83.99
2023-01-18T19:21:12.980Z,84.92
2023-01-18T19:23:39.784Z,84.40
2023-01-18T19:26:06.573Z,85.12
2023-01-18T19:28:33.154Z,84.64
2023-01-18T19:31:05.611Z,84.96
2023-01-18T19:33:34.985Z,85.23
2023-01-18T19:36:16.706Z,84.75
2023-01-18T19:38:49.254Z,84.82
2023-01-18T19:41:19.237Z,84.84
2023-01-18T19:43:49.194Z,84.59
2023-01-18T19:46:16.497Z,85.10
2023-01-18T19:48:43.896Z,84.63
2023-01-18T19:51:21.627Z,84.65
2023-01-18T19:53:48.791Z,85.20
2023-01-18T19:56:15.439Z,84.67
2023-01-18T19:58:42.232Z,84.37
2023-01-18T20:01:20.445Z,84.78
2023-01-18T20:03:57.216Z,84.57
2023-01-18T20:06:24.030Z,85.58
2023-01-18T20:08:51.587Z,84.95
2023-01-18T20:11:18.587Z,85.26
2023-01-18T20:13:49.085Z,86.28
2023-01-18T20:16:21.971Z,85.67
2023-01-18T20:18:48.922Z,85.58
2023-01-18T20:21:18.484Z,86.32
2023-01-18T20:23:45.994Z,86.20
2023-01-18T20:26:17.939Z,85.87
2023-01-18T20:28:48.985Z,85.90
2023-01-18T20:31:15.577Z,85.77
2023-01-18T20:33:42.839Z,86.08
2023-01-18T20:36:11.830Z,86.13
2023-01-18T20:38:38.454Z,86.42
2023-01-18T20:41:07.241Z,86.58
2023-01-18T20:43:37.291Z,86.27
2023-01-18T20:46:06.511Z,86.63
2023-01-18T20:48:34.634Z,86.27
2023-01-18T20:51:02.614Z,86.02
2023-01-18T20:53:31.588Z,85.68
2023-01-18T20:56:17.035Z,85.66
2023-01-18T20:58:54.574Z,85.46
2023-01-18T21:01:21.517Z,86.62
2023-01-18T21:03:56.194Z,86.28
2023-01-18T21:06:23.247Z,86.88
2023-01-18T21:08:57.735Z,86.37
2023-01-18T21:11:26.797Z,86.88
2023-01-18T21:13:59.217Z,86.76
2023-01-18T21:16:27.846Z,86.97
2023-01-18T21:18:56.272Z,87.01
2023-01-18T21:21:23.914Z,87.46
2023-01-18T21:23:50.714Z,86.90
2023-01-18T21:26:19.774Z,86.90
2023-01-18T21:28:46.355Z,87.52
2023-01-18T21:31:13.032Z,87.02
2023-01-18T21:33:40.010Z,87.37
2023-01-18T21:36:11.424Z,87.32
2023-01-18T21:38:39.627Z,87.27
2023-01-18T21:41:38.497Z,88.00
2023-01-18T21:44:23.657Z,87.29
2023-01-18T21:46:51.916Z,87.67
2023-01-18T21:52:43.794Z,88.14
2023-01-18T21:55:10.466Z,87.46
2023-01-18T21:57:39.263Z,87.82
2023-01-18T22:00:07.059Z,87.91
2023-01-18T22:02:34.991Z,87.85
2023-01-18T22:05:03.589Z,87.87
2023-01-18T22:07:35.361Z,87.76
2023-01-18T22:10:16.081Z,87.92
2023-01-18T22:12:45.087Z,87.57
2023-01-18T22:15:11.915Z,88.36
2023-01-18T22:17:38.479Z,88.26
2023-01-18T22:20:05.482Z,88.48
2023-01-18T22:22:33.897Z,87.84
2023-01-18T22:25:02.279Z,88.22
2023-01-18T22:27:29.222Z,87.67
2023-01-18T22:29:55.924Z,87.62
2023-01-18T22:32:22.718Z,87.44
2023-01-18T22:34:49.311Z,87.69
2023-01-18T22:37:15.910Z,87.40
2023-01-18T22:39:42.671Z,87.52
2023-01-18T22:42:09.258Z,87.07
2023-01-18T22:44:37.085Z,87.55
2023-01-18T22:47:06.347Z,87.04
2023-01-18T22:49:33.220Z,87.32
2023-01-18T22:51:59.923Z,87.05
2023-01-18T22:54:31.523Z,87.40
2023-01-18T22:57:00.667Z,87.22
2023-01-18T22:59:27.316Z,87.49
2023-01-18T23:01:53.962Z,87.09
2023-01-18T23:04:20.747Z,87.87
2023-01-18T23:06:48.983Z,87.54
2023-01-18T23:09:17.699Z,87.30
2023-01-18T23:11:46.228Z,87.60
2023-01-18T23:14:31.852Z,87.24
2023-01-18T23:17:16.827Z,87.18
2023-01-18T23:19:44.154Z,86.99
2023-01-18T23:22:15.094Z,86.96
2023-01-18T23:24:44.224Z,87.67
2023-01-18T23:27:13.474Z,86.88
2023-01-18T23:29:40.375Z,87.20
2023-01-18T23:32:07.400Z,86.94
2023-01-18T23:34:34.281Z,86.85
2023-01-18T23:37:01.092Z,87.37
2023-01-18T23:39:46.711Z,87.64
2023-01-18T23:42:32.098Z,87.07
2023-01-18T23:45:17.329Z,87.50
2023-01-18T23:48:02.907Z,87.01
2023-01-18T23:50:48.350Z,86.95
2023-01-18T23:53:36.240Z,87.54
2023-01-18T23:56:02.929Z,87.22
2023-01-18T23:58:32.561Z,87.27
